Time;durP1;ratioP1;P1;durP2;ratioP2;P2;SDS_P1;SDS_P2;PMS_P1;PMS_P2;Temp;Humidity;BMP_temperature;BMP_pressure;BME280_temperature;BME280_humidity;BME280_pressure;Samples;Min_cycle;Max_cycle;Signal;HPM_P1;HPM_P2
2023/07/31 00:03:12;;;;;;;1.70;0.90;;;;;;;18.24;62.08;96842.19;10539361;28;20402;-29
2023/07/31 00:08:12;;;;;;;4.50;1.73;;;;;;;18.26;62.30;96840.47;10538592;28;20083;-28
2023/07/31 00:13:13;;;;;;;3.13;1.80;;;;;;;18.29;62.15;96835.41;10536621;28;20039;-28
2023/07/31 00:18:14;;;;;;;7.63;1.50;;;;;;;18.27;62.32;96826.97;10530719;28;20455;-29
2023/07/31 00:23:14;;;;;;;6.63;1.45;;;;;;;18.28;62.26;96824.44;10538970;28;20032;-30
2023/07/31 00:28:14;;;;;;;2.70;1.30;;;;;;;18.27;62.47;96821.91;10537997;28;20057;-29
2023/07/31 00:33:15;;;;;;;2.60;1.30;;;;;;;18.26;62.45;96812.59;10537822;28;20410;-29
2023/07/31 00:38:15;;;;;;;2.37;1.50;;;;;;;18.24;62.38;96812.59;10519986;28;20093;-29
2023/07/31 00:43:15;;;;;;;3.47;1.40;;;;;;;18.26;62.42;96812.59;10537651;28;20318;-28
2023/07/31 00:48:16;;;;;;;3.80;1.20;;;;;;;18.22;62.62;96804.16;10515369;28;20032;-28
2023/07/31 00:53:16;;;;;;;3.20;1.33;;;;;;;18.23;62.74;96804.97;10532685;28;20044;-29
2023/07/31 00:58:16;;;;;;;3.08;1.40;;;;;;;18.23;62.78;96805.84;10518292;28;20039;-29
2023/07/31 01:03:18;;;;;;;3.00;1.80;;;;;;;18.23;62.79;96815.13;10515552;28;20033;-28
2023/07/31 01:08:30;;;;;;;2.40;1.20;;;;;;;18.19;63.03;96799.09;10525986;28;20051;-29
2023/07/31 01:13:31;;;;;;;2.42;1.48;;;;;;;18.18;63.06;96796.53;10514584;28;20024;-29
2023/07/31 01:18:31;;;;;;;4.82;1.70;;;;;;;18.12;63.10;96771.19;10506754;28;20039;-29
2023/07/31 01:24:02;;;;;;;3.53;1.50;;;;;;;18.16;62.98;96793.16;10517822;28;20024;-29
2023/07/31 01:29:10;;;;;;;4.13;1.50;;;;;;;18.12;63.05;96782.16;10534723;28;20028;-29
2023/07/31 01:34:12;;;;;;;5.07;1.58;;;;;;;18.10;62.99;96788.06;10516188;28;20028;-29
2023/07/31 01:39:15;;;;;;;4.95;1.98;;;;;;;18.02;62.89;96780.47;10543666;28;20035;-29
2023/07/31 01:44:16;;;;;;;3.50;1.40;;;;;;;18.06;63.09;96786.34;10536552;28;20401;-29
2023/07/31 01:49:16;;;;;;;7.30;1.80;;;;;;;18.04;62.94;96772.84;10526906;28;20036;-29
2023/07/31 01:54:16;;;;;;;4.40;1.55;;;;;;;18.01;62.90;96757.66;10533261;28;20803;-29
2023/07/31 01:59:17;;;;;;;5.33;1.30;;;;;;;17.96;62.71;96755.09;10515919;28;20469;-29
2023/07/31 02:04:17;;;;;;;3.60;1.52;;;;;;;17.98;62.64;96745.81;10515415;28;20308;-28
2023/07/31 02:09:18;;;;;;;2.40;1.40;;;;;;;17.91;62.52;96738.22;10528725;28;20115;-28
2023/07/31 02:14:18;;;;;;;3.20;1.20;;;;;;;17.91;62.68;96743.28;10510541;28;20045;-28
2023/07/31 02:19:18;;;;;;;3.23;1.20;;;;;;;17.90;62.31;96751.72;10532508;28;20321;-29
2023/07/31 02:24:19;;;;;;;1.87;1.50;;;;;;;17.89;62.10;96733.13;10533454;28;20089;-29
2023/07/31 02:29:19;;;;;;;3.97;1.63;;;;;;;17.91;61.88;96735.69;10526574;28;20439;-28
2023/07/31 02:34:20;;;;;;;4.57;1.03;;;;;;;17.80;61.75;96727.19;10508919;28;20115;-29
2023/07/31 02:39:20;;;;;;;4.38;1.40;;;;;;;17.92;61.12;96734.84;10520410;28;20860;-29
2023/07/31 02:44:23;;;;;;;2.03;1.27;;;;;;;17.90;60.88;96728.94;10520762;28;20035;-29
2023/07/31 02:49:23;;;;;;;5.30;1.63;;;;;;;17.90;60.91;96731.47;10532561;28;20089;-29
2023/07/31 02:54:24;;;;;;;3.77;1.20;;;;;;;17.86;61.15;96737.34;10509375;28;20089;-28
2023/07/31 02:59:25;;;;;;;3.83;1.48;;;;;;;17.89;61.03;96733.13;10503611;28;20043;-29
2023/07/31 03:04:25;;;;;;;1.80;1.30;;;;;;;17.86;60.75;96748.31;10511604;28;20060;-29
2023/07/31 03:09:26;;;;;;;3.20;1.50;;;;;;;17.79;60.41;96749.16;10505716;28;20036;-28
2023/07/31 03:14:26;;;;;;;2.70;1.37;;;;;;;17.69;60.47;96737.31;10525306;28;20298;-27
2023/07/31 03:19:26;;;;;;;4.45;1.48;;;;;;;17.87;60.59;96755.09;10531267;28;20106;-29
2023/07/31 03:24:28;;;;;;;2.10;1.40;;;;;;;17.81;60.36;96754.19;10530100;28;20032;-27
2023/07/31 03:29:28;;;;;;;2.60;1.30;;;;;;;17.77;60.08;96747.44;10538921;28;20034;-28
2023/07/31 03:34:29;;;;;;;2.72;1.27;;;;;;;17.81;59.82;96744.06;10545660;28;20662;-28
2023/07/31 03:39:29;;;;;;;2.83;1.15;;;;;;;17.77;60.03;96740.72;10536341;28;20035;-29
2023/07/31 03:44:30;;;;;;;3.65;1.40;;;;;;;17.49;61.15;96736.38;10535331;28;20110;-28
2023/07/31 03:49:30;;;;;;;3.07;1.77;;;;;;;17.60;61.26;96733.88;10551784;28;20035;-28
2023/07/31 03:54:31;;;;;;;3.20;1.23;;;;;;;17.47;61.11;96734.66;10548957;28;20020;-29
2023/07/31 03:59:31;;;;;;;6.73;1.70;;;;;;;17.47;61.08;96732.13;10539945;28;20040;-29
2023/07/31 04:04:31;;;;;;;3.90;1.90;;;;;;;17.44;61.43;96742.25;10544941;28;20062;-29
2023/07/31 04:09:32;;;;;;;6.20;2.23;;;;;;;17.34;61.71;96735.44;10550863;28;20035;-29
2023/07/31 04:14:32;;;;;;;4.80;1.60;;;;;;;17.42;61.49;96738.88;10551698;28;20485;-29
2023/07/31 04:19:32;;;;;;;8.73;1.77;;;;;;;17.56;61.31;96738.09;10549948;28;20505;-28
2023/07/31 04:24:33;;;;;;;3.03;1.30;;;;;;;17.98;59.89;96734.84;10539163;28;20494;-28
2023/07/31 04:29:33;;;;;;;6.03;1.37;;;;;;;18.13;59.57;96727.25;10533882;28;20638;-28
2023/07/31 04:34:34;;;;;;;4.07;1.60;;;;;;;18.22;59.31;96727.25;10534353;28;20029;-28
2023/07/31 04:39:34;;;;;;;2.50;1.60;;;;;;;18.29;59.27;96727.31;10538638;28;20039;-28
2023/07/31 04:44:35;;;;;;;2.20;1.60;;;;;;;18.30;59.04;96738.28;10537177;28;20029;-28
2023/07/31 04:49:35;;;;;;;3.75;1.58;;;;;;;18.32;58.86;96729.84;10532504;28;20020;-32
2023/07/31 04:54:36;;;;;;;3.58;1.58;;;;;;;18.58;58.71;96740.84;10527599;28;20031;-30
2023/07/31 04:59:36;;;;;;;3.63;1.33;;;;;;;18.79;58.32;96729.84;10528842;28;20039;-28
2023/07/31 05:04:37;;;;;;;6.45;1.65;;;;;;;18.88;58.15;96724.75;10530290;28;20040;-29
2023/07/31 05:09:39;;;;;;;3.67;1.27;;;;;;;18.99;58.07;96738.28;10520739;28;20029;-28
2023/07/31 05:14:39;;;;;;;5.00;1.80;;;;;;;19.01;58.26;96734.03;10527432;28;20039;-29
2023/07/31 05:19:40;;;;;;;5.70;1.13;;;;;;;19.04;58.14;96734.03;10535725;28;20445;-29
2023/07/31 05:24:40;;;;;;;3.63;1.45;;;;;;;19.13;57.99;96739.94;10534855;28;20040;-29
2023/07/31 05:29:40;;;;;;;4.63;1.43;;;;;;;19.26;58.48;96741.63;10526658;28;20457;-29
2023/07/31 05:34:41;;;;;;;3.77;1.30;;;;;;;19.26;58.35;96738.25;10533554;28;20047;-29
2023/07/31 05:39:42;;;;;;;1.38;1.05;;;;;;;19.28;57.78;96745.03;10533666;28;20564;-29
2023/07/31 05:44:43;;;;;;;1.37;1.20;;;;;;;19.26;58.19;96734.00;10532787;28;20037;-29
2023/07/31 05:49:44;;;;;;;3.38;1.40;;;;;;;19.29;58.19;96740.78;10536290;28;20816;-29
2023/07/31 05:54:45;;;;;;;3.45;1.40;;;;;;;19.30;58.14;96747.53;10534325;28;20123;-29
2023/07/31 05:59:46;;;;;;;2.38;1.38;;;;;;;19.23;58.34;96723.88;10534146;28;20787;-29
2023/07/31 06:04:46;;;;;;;2.50;1.27;;;;;;;19.30;58.41;96732.31;10533999;28;20036;-28
2023/07/31 06:09:47;;;;;;;1.07;0.90;;;;;;;19.34;58.28;96728.91;10530877;28;20398;-28
2023/07/31 06:14:47;;;;;;;3.63;1.20;;;;;;;19.39;58.18;96711.97;10518571;28;20108;-29
2023/07/31 06:19:48;;;;;;;3.53;1.13;;;;;;;19.42;58.04;96706.88;10533482;28;20031;-29
2023/07/31 06:24:48;;;;;;;5.82;1.60;;;;;;;19.52;58.95;96704.28;10532655;28;20039;-29
2023/07/31 06:29:48;;;;;;;2.55;1.13;;;;;;;19.58;59.00;96701.72;10539674;28;20027;-29
2023/07/31 06:34:49;;;;;;;2.10;1.30;;;;;;;19.52;58.47;96699.19;10527619;28;20039;-29
2023/07/31 06:39:49;;;;;;;1.85;1.10;;;;;;;19.52;58.39;96698.38;10524535;28;20294;-29
2023/07/31 06:44:50;;;;;;;1.17;0.97;;;;;;;19.50;58.43;96689.94;10545623;28;20050;-29
2023/07/31 06:49:50;;;;;;;3.47;1.40;;;;;;;19.51;58.48;96706.84;10536810;28;20028;-29
2023/07/31 06:55:18;;;;;;;1.83;1.13;;;;;;;19.52;58.46;96708.53;10527455;28;20482;-29
2023/07/31 07:00:19;;;;;;;2.50;1.33;;;;;;;19.52;58.80;96728.84;10524037;28;20047;-29
2023/07/31 07:05:20;;;;;;;1.48;1.08;;;;;;;19.52;58.70;96716.16;10524271;28;20468;-29
2023/07/31 07:10:20;;;;;;;2.47;1.60;;;;;;;19.54;58.53;96729.69;10523652;28;20122;-29
2023/07/31 07:15:20;;;;;;;2.25;1.27;;;;;;;19.60;59.85;96727.13;10526004;28;20036;-29
2023/07/31 07:20:21;;;;;;;2.10;1.42;;;;;;;19.70;59.78;96710.97;10521091;28;20107;-29
2023/07/31 07:25:22;;;;;;;3.30;1.30;;;;;;;19.67;59.74;96696.59;10529962;28;20174;-30
2023/07/31 07:30:24;;;;;;;2.22;1.05;;;;;;;19.64;58.98;96698.31;10528206;28;20502;-29
2023/07/31 07:35:24;;;;;;;3.55;1.13;;;;;;;19.62;58.80;96687.31;10529845;28;20102;-28
2023/07/31 07:40:24;;;;;;;1.93;1.10;;;;;;;19.62;58.85;96679.69;10524862;28;20074;-28
2023/07/31 07:45:25;;;;;;;2.03;0.97;;;;;;;19.60;58.96;96681.41;10518024;28;20032;-29
2023/07/31 07:50:25;;;;;;;1.40;0.93;;;;;;;19.60;59.02;96676.34;10530824;28;20040;-28
2023/07/31 07:55:26;;;;;;;2.40;1.20;;;;;;;19.62;59.00;96679.69;10527432;28;20043;-29
2023/07/31 08:00:26;;;;;;;2.93;0.90;;;;;;;19.61;59.18;96683.09;10523517;28;20297;-29
2023/07/31 08:05:27;;;;;;;1.63;1.23;;;;;;;19.62;58.99;96684.78;10520905;28;20031;-29
2023/07/31 08:10:27;;;;;;;2.30;1.63;;;;;;;19.71;61.25;96689.81;10529242;28;20035;-29
2023/07/31 08:15:30;;;;;;;1.50;1.05;;;;;;;19.79;60.74;96686.38;10535629;28;20032;-29
2023/07/31 08:20:30;;;;;;;2.13;1.10;;;;;;;19.79;60.30;96677.91;10528413;28;20040;-28
2023/07/31 08:25:34;;;;;;;4.40;1.20;;;;;;;19.73;59.37;96672.84;10537583;28;20036;-29
2023/07/31 08:30:36;;;;;;;1.40;0.98;;;;;;;19.69;59.10;96672.03;10537790;28;20047;-29
2023/07/31 08:35:37;;;;;;;2.25;1.00;;;;;;;19.68;59.33;96664.44;10537385;28;20149;-29
2023/07/31 08:40:40;;;;;;;2.20;1.20;;;;;;;19.67;59.50;96667.84;10536589;28;20085;-29
2023/07/31 08:45:42;;;;;;;1.65;1.02;;;;;;;19.67;59.47;96678.81;10537581;28;20217;-29
2023/07/31 08:50:42;;;;;;;1.67;1.10;;;;;;;19.68;59.50;96669.50;10529816;28;20032;-29
2023/07/31 08:55:44;;;;;;;2.80;1.20;;;;;;;19.68;59.50;96669.50;10532036;28;20040;-29
2023/07/31 09:00:47;;;;;;;2.83;1.17;;;;;;;19.68;59.31;96661.91;10522563;28;20040;-29
2023/07/31 09:05:47;;;;;;;1.98;0.95;;;;;;;19.81;60.72;96668.56;10536066;28;20063;-29
2023/07/31 09:10:49;;;;;;;2.78;1.33;;;;;;;19.87;60.85;96655.84;10530208;28;20074;-29
2023/07/31 09:15:50;;;;;;;1.90;0.90;;;;;;;19.82;60.06;96655.00;10533897;28;20031;-29
2023/07/31 09:21:07;;;;;;;2.53;1.27;;;;;;;19.77;59.50;96642.34;10535735;28;20409;-29
2023/07/31 09:26:07;;;;;;;1.70;1.02;;;;;;;19.75;59.82;96620.38;10528152;28;20121;-29
2023/07/31 09:31:07;;;;;;;2.10;1.73;;;;;;;19.74;59.69;96613.56;10533142;28;20098;-29
2023/07/31 09:36:08;;;;;;;0.90;0.77;;;;;;;19.73;59.72;96616.97;10527250;28;20047;-29
2023/07/31 09:41:08;;;;;;;1.77;0.93;;;;;;;19.74;59.92;96603.41;10533301;28;20046;-29
2023/07/31 09:46:13;;;;;;;2.07;0.80;;;;;;;19.66;59.66;96582.34;10527921;28;20127;-29
2023/07/31 09:51:17;;;;;;;0.98;0.70;;;;;;;19.73;59.74;96591.56;10533084;28;20274;-29
2023/07/31 09:56:21;;;;;;;1.20;1.00;;;;;;;19.74;59.91;96583.09;10535890;28;20024;-28
2023/07/31 10:01:21;;;;;;;1.33;0.93;;;;;;;19.88;61.07;96568.59;10529377;28;20490;-29
2023/07/31 10:06:25;;;;;;;1.30;0.90;;;;;;;19.93;60.99;96569.41;10533949;28;20027;-29
2023/07/31 10:11:28;;;;;;;1.35;0.98;;;;;;;19.87;60.54;96564.38;10533467;28;20710;-29
2023/07/31 10:16:29;;;;;;;1.13;0.77;;;;;;;19.81;59.87;96565.28;10530923;28;20050;-30
2023/07/31 10:21:34;;;;;;;1.77;1.10;;;;;;;19.79;59.88;96543.28;10533344;28;20027;-28
2023/07/31 10:26:37;;;;;;;2.58;1.50;;;;;;;19.78;60.00;96528.88;10532318;28;20046;-29
2023/07/31 10:31:38;;;;;;;1.00;0.77;;;;;;;19.77;60.08;96517.03;10536785;28;20150;-28
2023/07/31 10:36:39;;;;;;;1.15;0.82;;;;;;;19.77;59.99;96533.09;10533803;28;20043;-28
2023/07/31 10:41:42;;;;;;;1.40;1.00;;;;;;;19.78;60.03;96526.34;10533066;28;20028;-28
2023/07/31 10:46:45;;;;;;;2.08;0.73;;;;;;;19.77;60.07;96529.75;10525703;28;20033;-29
2023/07/31 10:51:47;;;;;;;7.80;1.10;;;;;;;19.86;60.60;96532.22;10531818;28;20080;-29
2023/07/31 10:56:52;;;;;;;10.32;1.63;;;;;;;19.95;60.91;96534.66;10522697;28;20111;-29
2023/07/31 11:01:56;;;;;;;2.97;0.98;;;;;;;19.91;60.87;96510.97;10518022;28;20130;-28
2023/07/31 11:07:02;;;;;;;3.90;2.20;;;;;;;19.89;59.93;96519.47;10525107;28;20044;-29
2023/07/31 11:12:03;;;;;;;7.30;1.40;;;;;;;19.82;60.33;96510.22;10522411;28;20567;-28
2023/07/31 11:17:07;;;;;;;19.67;3.30;;;;;;;19.83;60.66;96517.81;10523700;28;20044;-28
2023/07/31 11:22:08;;;;;;;14.30;3.13;;;;;;;19.82;60.33;96511.06;10530893;28;20028;-29
2023/07/31 11:27:08;;;;;;;8.33;1.60;;;;;;;19.83;60.16;96517.00;10521212;28;20047;-29
2023/07/31 11:32:17;;;;;;;9.57;2.70;;;;;;;19.82;60.27;96518.69;10520242;28;20290;-29
2023/07/31 11:37:17;;;;;;;12.80;2.40;;;;;;;19.82;60.03;96505.13;10529596;28;20035;-29
2023/07/31 11:42:17;;;;;;;11.83;1.73;;;;;;;19.82;60.05;96505.13;10531112;28;20050;-29
2023/07/31 11:47:18;;;;;;;9.43;2.10;;;;;;;19.94;61.71;96510.94;10531445;28;20035;-28
2023/07/31 11:52:20;;;;;;;17.50;2.40;;;;;;;20.03;61.32;96499.88;10525398;28;20069;-29
2023/07/31 11:57:20;;;;;;;6.45;2.13;;;;;;;19.99;60.65;96501.59;10539048;28;20285;-28
2023/07/31 12:02:21;;;;;;;7.53;2.78;;;;;;;19.92;60.09;96496.59;10524901;28;20051;-29
2023/07/31 12:07:24;;;;;;;6.93;1.77;;;;;;;19.84;60.17;96472.97;10522090;28;20096;-29
2023/07/31 12:12:25;;;;;;;8.25;1.65;;;;;;;19.87;60.00;96472.91;10530342;28;20028;-29
2023/07/31 12:17:26;;;;;;;2.90;1.27;;;;;;;19.86;60.14;96444.09;10533768;28;20115;-29
2023/07/31 12:22:27;;;;;;;4.80;1.42;;;;;;;19.86;60.22;96443.28;10526542;28;20044;-28
2023/07/31 12:27:33;;;;;;;3.60;1.55;;;;;;;19.84;60.24;96420.44;10526688;28;20402;-29
2023/07/31 12:32:33;;;;;;;3.10;1.48;;;;;;;19.84;60.29;96422.16;10537778;28;20024;-29
2023/07/31 12:37:34;;;;;;;6.50;1.70;;;;;;;19.87;60.79;96419.56;10532570;28;20498;-29
2023/07/31 12:42:34;;;;;;;6.27;1.63;;;;;;;20.01;61.40;96420.28;10522325;28;20445;-28
2023/07/31 12:47:34;;;;;;;5.20;1.70;;;;;;;20.06;61.15;96423.63;10532575;28;20038;-29
2023/07/31 12:52:35;;;;;;;4.77;1.80;;;;;;;20.02;60.67;96406.69;10523584;28;20028;-28
2023/07/31 12:57:35;;;;;;;5.23;2.07;;;;;;;19.93;60.26;96396.63;10536546;28;20419;-29
2023/07/31 13:02:35;;;;;;;4.27;1.63;;;;;;;19.91;60.21;96398.38;10535949;28;20402;-29
2023/07/31 13:07:36;;;;;;;4.43;1.63;;;;;;;19.90;60.78;96391.56;10536170;28;20036;-29
2023/07/31 13:12:36;;;;;;;3.70;1.45;;;;;;;19.92;60.51;96394.97;10535359;28;20028;-28
2023/07/31 13:17:37;;;;;;;3.73;1.40;;;;;;;19.93;60.40;96401.72;10525642;28;20027;-29
2023/07/31 13:22:37;;;;;;;3.33;1.45;;;;;;;19.93;60.55;96391.56;10536277;28;20339;-29
2023/07/31 13:27:38;;;;;;;4.73;1.53;;;;;;;19.89;60.52;96380.59;10535938;28;20028;-29
2023/07/31 13:32:38;;;;;;;4.50;1.80;;;;;;;20.02;61.63;96386.38;10530396;28;20031;-29
2023/07/31 13:37:39;;;;;;;4.65;1.45;;;;;;;20.12;61.47;96382.91;10534603;28;20387;-29
2023/07/31 13:42:39;;;;;;;2.53;1.33;;;;;;;20.08;60.62;96374.47;10523247;28;20062;-29
2023/07/31 13:47:39;;;;;;;7.00;2.83;;;;;;;20.06;60.69;96367.72;10527187;28;20030;-29
2023/07/31 13:52:40;;;;;;;6.23;2.10;;;;;;;20.02;60.73;96353.34;10533876;28;20323;-29
2023/07/31 13:57:40;;;;;;;4.20;2.30;;;;;;;20.00;60.87;96342.34;10526942;28;20289;-29
2023/07/31 14:02:40;;;;;;;4.87;2.40;;;;;;;20.00;60.80;96342.34;10519632;28;20329;-29
2023/07/31 14:07:41;;;;;;;6.40;2.33;;;;;;;20.01;60.74;96341.50;10528139;28;20286;-29
2023/07/31 14:12:41;;;;;;;9.07;5.13;;;;;;;20.01;60.70;96338.94;10529607;28;20028;-30
2023/07/31 14:17:42;;;;;;;10.57;4.90;;;;;;;20.00;60.88;96333.00;10533118;28;20028;-29
2023/07/31 14:22:42;;;;;;;10.73;4.37;;;;;;;20.00;60.82;96332.19;10532838;28;20290;-29
2023/07/31 14:27:42;;;;;;;5.17;2.67;;;;;;;20.12;61.63;96329.53;10532961;28;20031;-29
2023/07/31 14:32:42;;;;;;;3.40;1.70;;;;;;;20.18;61.95;96326.91;10524450;28;20082;-29
2023/07/31 14:37:44;;;;;;;7.53;2.77;;;;;;;20.12;61.19;96321.91;10533042;28;20545;-29
2023/07/31 14:42:44;;;;;;;6.03;3.08;;;;;;;19.95;60.72;96303.44;10531149;28;20039;-28
2023/07/31 14:47:45;;;;;;;56.70;7.47;;;;;;;20.07;61.92;96316.03;10513795;28;20027;-29
2023/07/31 14:52:45;;;;;;;48.07;5.93;;;;;;;20.04;62.60;96309.28;10532080;28;20278;-29
2023/07/31 14:57:46;;;;;;;31.87;4.63;;;;;;;20.04;62.75;96311.84;10531346;28;20447;-29
2023/07/31 15:02:46;;;;;;;21.83;4.30;;;;;;;20.05;62.95;96310.13;10524799;28;20490;-29
2023/07/31 15:07:46;;;;;;;17.13;4.07;;;;;;;20.06;63.11;96301.63;10531170;28;20516;-29
2023/07/31 15:12:47;;;;;;;19.10;3.60;;;;;;;20.12;63.43;96297.34;10517126;28;20035;-29
2023/07/31 15:17:47;;;;;;;11.20;3.60;;;;;;;20.19;63.45;96287.91;10531136;28;20043;-31
2023/07/31 15:22:48;;;;;;;15.00;4.30;;;;;;;20.35;63.07;96284.31;10529997;28;20667;-29
2023/07/31 15:27:48;;;;;;;9.02;2.17;;;;;;;20.41;63.12;96282.50;10540473;28;20028;-28
2023/07/31 15:32:49;;;;;;;8.33;2.33;;;;;;;20.46;63.14;96273.94;10535186;28;20461;-29
2023/07/31 15:37:50;;;;;;;9.38;1.92;;;;;;;20.47;63.17;96275.63;10534218;28;20038;-29
2023/07/31 15:42:50;;;;;;;10.70;2.10;;;;;;;20.50;63.16;96270.50;10537950;28;20042;-29
2023/07/31 15:47:50;;;;;;;4.87;1.87;;;;;;;20.50;63.12;96256.94;10526277;28;20024;-28
2023/07/31 15:52:53;;;;;;;10.00;2.13;;;;;;;20.55;63.22;96255.19;10536066;28;20030;-29
2023/07/31 15:57:53;;;;;;;12.38;2.00;;;;;;;20.55;63.17;96257.72;10528904;28;20036;-28
2023/07/31 16:02:54;;;;;;;6.77;2.17;;;;;;;20.59;63.25;96262.75;10530309;28;20032;-28
2023/07/31 16:07:54;;;;;;;9.33;2.10;;;;;;;20.59;63.18;96272.91;10526960;28;20139;-29
2023/07/31 16:12:55;;;;;;;11.73;2.60;;;;;;;20.61;63.19;96268.63;10532951;28;20024;-29
2023/07/31 16:17:55;;;;;;;10.30;2.50;;;;;;;20.72;63.04;96278.66;10535271;28;20042;-29
2023/07/31 16:22:55;;;;;;;7.13;2.13;;;;;;;20.70;62.32;96278.66;10530071;28;20036;-29
2023/07/31 16:27:58;;;;;;;11.15;2.70;;;;;;;20.76;63.14;96272.63;10527868;28;20508;-29
2023/07/31 16:32:59;;;;;;;28.00;5.90;;;;;;;20.75;63.40;96264.19;10526893;28;20032;-29
2023/07/31 16:37:59;;;;;;;17.77;5.30;;;;;;;20.82;63.01;96247.09;10528538;28;20519;-29
2023/07/31 16:42:59;;;;;;;11.00;3.30;;;;;;;20.78;62.57;96246.31;10521939;28;20363;-29
2023/07/31 16:48:02;;;;;;;11.43;3.63;;;;;;;20.77;63.13;96239.53;10526790;28;20032;-29
2023/07/31 16:53:02;;;;;;;11.90;4.30;;;;;;;20.72;62.71;96217.59;10526043;28;20394;-29
2023/07/31 16:58:03;;;;;;;13.45;3.75;;;;;;;20.79;62.51;96222.53;10524423;28;20028;-28
2023/07/31 17:03:03;;;;;;;10.30;3.30;;;;;;;20.78;63.10;96218.31;10535759;28;20063;-29
2023/07/31 17:08:04;;;;;;;12.70;4.03;;;;;;;20.76;63.05;96214.13;10536017;28;20293;-29
2023/07/31 17:13:04;;;;;;;7.97;3.40;;;;;;;20.74;62.84;96195.50;10535719;28;20115;-29
2023/07/31 17:18:04;;;;;;;10.73;2.97;;;;;;;20.73;62.94;96187.00;10526100;28;20035;-29
2023/07/31 17:23:05;;;;;;;19.10;4.47;;;;;;;20.75;63.62;96190.41;10521551;28;20035;-29
2023/07/31 17:28:05;;;;;;;11.47;3.13;;;;;;;20.73;63.46;96199.75;10534516;28;20509;-29
2023/07/31 17:33:05;;;;;;;12.73;3.23;;;;;;;20.73;63.47;96212.47;10526355;28;20035;-29
2023/07/31 17:38:06;;;;;;;10.07;3.10;;;;;;;20.74;63.53;96219.25;10528179;28;20040;-29
2023/07/31 17:43:07;;;;;;;10.15;3.35;;;;;;;20.73;63.31;96217.53;10524408;28;20318;-29
2023/07/31 17:48:08;;;;;;;8.88;3.22;;;;;;;20.71;63.09;96205.75;10518623;28;20424;-29
2023/07/31 17:53:08;;;;;;;10.25;2.97;;;;;;;20.74;62.75;96204.00;10530104;28;20020;-29
2023/07/31 17:58:09;;;;;;;10.67;3.17;;;;;;;20.76;63.27;96202.25;10534332;28;20218;-28
2023/07/31 18:03:11;;;;;;;8.93;3.63;;;;;;;20.76;62.99;96204.78;10531638;28;20067;-29
2023/07/31 18:08:12;;;;;;;7.38;3.20;;;;;;;20.74;62.91;96213.31;10532794;28;20028;-29
2023/07/31 18:13:13;;;;;;;6.93;2.53;;;;;;;20.68;63.17;96193.91;10529301;28;20040;-29
2023/07/31 18:18:14;;;;;;;5.70;2.88;;;;;;;20.69;62.84;96194.72;10524318;28;20276;-29
2023/07/31 18:23:14;;;;;;;7.38;2.63;;;;;;;20.68;62.56;96201.53;10527742;28;20040;-29
2023/07/31 18:28:15;;;;;;;7.05;2.55;;;;;;;20.70;62.94;96197.25;10531339;28;20089;-29
2023/07/31 18:33:15;;;;;;;6.73;2.63;;;;;;;20.69;62.73;96185.41;10532912;28;20027;-29
2023/07/31 18:38:15;;;;;;;5.67;2.57;;;;;;;20.69;62.70;96182.88;10518712;28;20036;-29
2023/07/31 18:43:16;;;;;;;3.97;2.50;;;;;;;20.69;62.72;96175.22;10532895;28;20048;-29
2023/07/31 18:48:16;;;;;;;5.13;2.33;;;;;;;20.73;62.75;96187.00;10527985;28;20031;-28
2023/07/31 18:53:18;;;;;;;5.67;2.37;;;;;;;20.70;62.36;96192.16;10525046;28;20417;-28
2023/07/31 18:58:18;;;;;;;6.50;2.25;;;;;;;20.68;62.64;96193.91;10521650;28;20489;-29
2023/07/31 19:03:18;;;;;;;8.37;2.60;;;;;;;20.63;62.51;96157.53;10530127;28;20093;-29
2023/07/31 19:08:19;;;;;;;5.47;3.10;;;;;;;20.60;62.61;96142.31;10531990;28;20514;-29
2023/07/31 19:13:19;;;;;;;6.80;2.70;;;;;;;20.61;62.59;96151.63;10529477;28;20047;-29
2023/07/31 19:18:19;;;;;;;4.40;2.03;;;;;;;20.62;62.27;96160.13;10514922;28;20282;-29
2023/07/31 19:23:21;;;;;;;3.60;2.20;;;;;;;20.60;62.26;96149.97;10531588;28;20093;-29
2023/07/31 19:28:23;;;;;;;5.68;2.30;;;;;;;20.60;62.33;96147.41;10521847;28;20554;-28
2023/07/31 19:33:24;;;;;;;8.02;2.60;;;;;;;20.61;62.28;96154.19;10523908;28;20097;-29
2023/07/31 19:38:25;;;;;;;5.63;2.37;;;;;;;20.63;63.13;96154.97;10521650;28;20067;-29
2023/07/31 19:43:25;;;;;;;3.45;2.25;;;;;;;20.66;62.28;96134.59;10525411;28;20043;-29
2023/07/31 19:48:25;;;;;;;3.70;2.13;;;;;;;20.63;62.23;96133.81;10525363;28;20398;-29
2023/07/31 19:53:26;;;;;;;4.30;1.97;;;;;;;20.61;62.28;96146.53;10530119;28;20586;-29
2023/07/31 19:58:27;;;;;;;5.07;1.80;;;;;;;20.57;62.07;96134.72;10528839;28;20299;-29
2023/07/31 20:03:27;;;;;;;4.68;2.10;;;;;;;20.59;62.16;96134.72;10528077;28;20034;-29
2023/07/31 20:08:27;;;;;;;3.03;2.10;;;;;;;20.54;61.98;96134.78;10526155;28;20478;-29
2023/07/31 20:13:30;;;;;;;2.53;1.40;;;;;;;20.51;61.98;96132.31;10526189;28;20486;-29
2023/07/31 20:18:31;;;;;;;3.15;2.00;;;;;;;20.53;61.98;96117.88;10532387;28;20039;-30
2023/07/31 20:23:31;;;;;;;6.63;3.00;;;;;;;20.53;61.92;96107.69;10545215;28;20036;-29
2023/07/31 20:28:31;;;;;;;7.67;2.60;;;;;;;20.54;63.07;96099.19;10527216;28;20298;-29
2023/07/31 20:33:34;;;;;;;3.05;2.00;;;;;;;20.62;62.72;96115.16;10531875;28;20036;-29
2023/07/31 20:38:34;;;;;;;3.72;1.90;;;;;;;20.57;61.93;96105.94;10527760;28;20068;-29
2023/07/31 20:43:35;;;;;;;2.88;1.70;;;;;;;20.56;61.88;96107.63;10545664;28;20060;-29
2023/07/31 20:48:35;;;;;;;3.03;1.80;;;;;;;20.54;61.84;96101.72;10528629;28;20112;-29
2023/07/31 20:53:35;;;;;;;2.90;1.87;;;;;;;20.46;61.82;96090.84;10535910;28;20405;-29
2023/07/31 20:58:37;;;;;;;2.60;2.00;;;;;;;20.49;62.06;96116.25;10524014;28;20330;-29
2023/07/31 21:03:38;;;;;;;2.65;1.67;;;;;;;20.55;62.21;96133.09;10533404;28;20043;-29
2023/07/31 21:08:38;;;;;;;3.13;1.70;;;;;;;20.50;62.08;96120.47;10541219;28;20031;-29
2023/07/31 21:13:39;;;;;;;2.70;1.57;;;;;;;20.50;61.95;96117.94;10535438;28;20118;-29
2023/07/31 21:18:39;;;;;;;6.78;2.10;;;;;;;20.63;64.04;96108.38;10519074;28;20318;-29
2023/07/31 21:23:40;;;;;;;4.00;2.00;;;;;;;20.65;65.32;96099.81;10517164;28;20517;-29
2023/07/31 21:28:40;;;;;;;2.75;1.80;;;;;;;20.58;62.13;96090.66;10514715;28;20548;-30
2023/07/31 21:33:42;;;;;;;3.65;1.70;;;;;;;20.55;61.67;96089.88;10520850;28;20032;-29
2023/07/31 21:38:42;;;;;;;3.78;2.45;;;;;;;20.53;62.13;96087.34;10521274;28;20028;-29
2023/07/31 21:43:42;;;;;;;3.20;1.63;;;;;;;20.49;61.72;96095.91;10534879;28;20036;-31
2023/07/31 21:48:43;;;;;;;1.70;1.40;;;;;;;20.49;61.94;96090.81;10530446;28;20035;-29
2023/07/31 21:53:43;;;;;;;1.93;1.60;;;;;;;20.49;61.62;96072.16;10534930;28;20024;-29
2023/07/31 21:58:43;;;;;;;2.83;1.60;;;;;;;20.47;61.88;96067.09;10527929;28;20368;-30
2023/07/31 22:03:44;;;;;;;1.90;1.27;;;;;;;20.47;61.75;96054.38;10531798;28;20494;-30
2023/07/31 22:08:44;;;;;;;4.45;2.15;;;;;;;20.57;64.64;96047.44;10536879;28;20035;-30
2023/07/31 22:13:44;;;;;;;3.25;2.10;;;;;;;20.62;65.63;96046.47;10527546;28;20024;-29
2023/07/31 22:18:45;;;;;;;3.03;1.80;;;;;;;20.54;61.96;96042.41;10525397;28;20069;-30
2023/07/31 22:23:45;;;;;;;2.77;1.60;;;;;;;20.48;61.63;96027.28;10542269;28;20088;-30
2023/07/31 22:28:46;;;;;;;2.67;1.50;;;;;;;20.48;61.78;96012.00;10541930;28;20028;-29
2023/07/31 22:33:46;;;;;;;2.40;1.83;;;;;;;20.45;61.59;95981.56;10522679;28;20024;-30
2023/07/31 22:38:47;;;;;;;1.93;1.50;;;;;;;20.46;61.61;95973.06;10532174;28;20028;-29
2023/07/31 22:43:47;;;;;;;1.60;1.38;;;;;;;20.47;61.60;95950.13;10534858;28;20036;-29
2023/07/31 22:48:47;;;;;;;1.20;1.10;;;;;;;20.47;61.59;95956.94;10530885;28;20040;-30
2023/07/31 22:53:48;;;;;;;1.73;1.27;;;;;;;20.45;61.52;95946.78;10532412;28;20397;-30
2023/07/31 22:58:48;;;;;;;3.53;1.97;;;;;;;20.57;64.38;95943.16;10531951;28;20043;-29
2023/07/31 23:03:48;;;;;;;3.10;2.27;;;;;;;20.63;66.01;95930.34;10525387;28;20672;-30
2023/07/31 23:08:49;;;;;;;3.13;1.73;;;;;;;20.57;62.08;95930.44;10522791;28;20024;-30
2023/07/31 23:13:49;;;;;;;1.75;1.30;;;;;;;20.51;61.14;95936.50;10529186;28;20493;-29
2023/07/31 23:18:50;;;;;;;2.70;1.10;;;;;;;20.48;61.67;95936.53;10518565;28;20046;-29